sensor_id;sensor_type;location;lat;lon;timestamp;pressure;altitude;pressure_sealevel;temperature;humidity
71678;BME280;59511;52.136;6.206;2023-12-20T00:01:31;101401.72;;;26.46;30.56
71678;BME280;59511;52.136;6.206;2023-12-20T00:03:57;101411.56;;;26.47;30.54
71678;BME280;59511;52.136;6.206;2023-12-20T00:06:22;101400.84;;;26.41;30.34
71678;BME280;59511;52.136;6.206;2023-12-20T00:08:47;101400.84;;;26.41;30.57
71678;BME280;59511;52.136;6.206;2023-12-20T00:11:13;101403.09;;;26.44;30.58
71678;BME280;59511;52.136;6.206;2023-12-20T00:13:38;101401.16;;;26.44;30.43
71678;BME280;59511;52.136;6.206;2023-12-20T00:16:04;101395.94;;;26.38;30.34
71678;BME280;59511;52.136;6.206;2023-12-20T00:18:29;101408.25;;;26.40;30.79
71678;BME280;59511;52.136;6.206;2023-12-20T00:20:54;101399.75;;;26.37;30.48
71678;BME280;59511;52.136;6.206;2023-12-20T00:23:20;101404.41;;;26.41;30.17
71678;BME280;59511;52.136;6.206;2023-12-20T00:25:45;101404.69;;;26.40;30.54
71678;BME280;59511;52.136;6.206;2023-12-20T00:28:11;101393.19;;;26.38;30.38
71678;BME280;59511;52.136;6.206;2023-12-20T00:30:36;101391.84;;;26.35;30.45
71678;BME280;59511;52.136;6.206;2023-12-20T00:33:01;101381.41;;;26.32;30.32
71678;BME280;59511;52.136;6.206;2023-12-20T00:35:27;101392.94;;;26.39;30.18
71678;BME280;59511;52.136;6.206;2023-12-20T00:37:53;101386.59;;;26.34;30.36
71678;BME280;59511;52.136;6.206;2023-12-20T00:40:18;101399.72;;;26.32;30.49
71678;BME280;59511;52.136;6.206;2023-12-20T00:42:43;101393.72;;;26.35;30.17
71678;BME280;59511;52.136;6.206;2023-12-20T00:45:09;101387.13;;;26.31;30.57
71678;BME280;59511;52.136;6.206;2023-12-20T00:47:34;101397.81;;;26.37;30.34
71678;BME280;59511;52.136;6.206;2023-12-20T00:50:00;101389.34;;;26.34;30.50
71678;BME280;59511;52.136;6.206;2023-12-20T00:52:25;101400.56;;;26.37;30.49
71678;BME280;59511;52.136;6.206;2023-12-20T00:54:51;101397.88;;;26.42;30.09
71678;BME280;59511;52.136;6.206;2023-12-20T00:57:16;101397.81;;;26.37;30.20
71678;BME280;59511;52.136;6.206;2023-12-20T00:59:42;101396.19;;;26.36;30.50
71678;BME280;59511;52.136;6.206;2023-12-20T01:02:07;101401.09;;;26.34;30.33
71678;BME280;59511;52.136;6.206;2023-12-20T01:04:34;101387.94;;;26.26;30.39
71678;BME280;59511;52.136;6.206;2023-12-20T01:06:59;101377.66;;;26.38;30.25
71678;BME280;59511;52.136;6.206;2023-12-20T01:09:24;101374.28;;;26.26;30.08
71678;BME280;59511;52.136;6.206;2023-12-20T01:11:52;101378.38;;;26.29;30.27
71678;BME280;59511;52.136;6.206;2023-12-20T01:14:18;101387.69;;;26.33;30.00
71678;BME280;59511;52.136;6.206;2023-12-20T01:16:44;101382.78;;;26.30;30.23
71678;BME280;59511;52.136;6.206;2023-12-20T01:19:09;101377.63;;;26.33;30.33
71678;BME280;59511;52.136;6.206;2023-12-20T01:21:34;101390.16;;;26.34;30.25
71678;BME280;59511;52.136;6.206;2023-12-20T01:24:00;101382.78;;;26.30;30.22
71678;BME280;59511;52.136;6.206;2023-12-20T01:26:25;101386.31;;;26.30;30.26
71678;BME280;59511;52.136;6.206;2023-12-20T01:28:50;101386.59;;;26.34;30.16
71678;BME280;59511;52.136;6.206;2023-12-20T01:31:16;101397.00;;;26.32;30.02
71678;BME280;59511;52.136;6.206;2023-12-20T01:33:41;101389.88;;;26.31;29.78
71678;BME280;59511;52.136;6.206;2023-12-20T01:36:06;101379.47;;;26.28;30.13
71678;BME280;59511;52.136;6.206;2023-12-20T01:38:32;101389.31;;;26.29;30.16
71678;BME280;59511;52.136;6.206;2023-12-20T01:40:57;101391.78;;;26.30;29.95
71678;BME280;59511;52.136;6.206;2023-12-20T01:43:23;101391.78;;;26.30;30.13
71678;BME280;59511;52.136;6.206;2023-12-20T01:45:48;101383.03;;;26.28;29.91
71678;BME280;59511;52.136;6.206;2023-12-20T01:48:14;101384.66;;;26.29;29.79
71678;BME280;59511;52.136;6.206;2023-12-20T01:50:41;101388.19;;;26.25;30.22
71678;BME280;59511;52.136;6.206;2023-12-20T01:53:09;101377.50;;;26.23;29.92
71678;BME280;59511;52.136;6.206;2023-12-20T01:55:39;101386.81;;;26.22;29.94
71678;BME280;59511;52.136;6.206;2023-12-20T01:58:06;101391.16;;;26.23;29.91
71678;BME280;59511;52.136;6.206;2023-12-20T02:00:31;101391.16;;;26.23;29.98
71678;BME280;59511;52.136;6.206;2023-12-20T02:03:01;101395.28;;;26.26;29.78
71678;BME280;59511;52.136;6.206;2023-12-20T02:05:26;101399.13;;;26.25;30.06
71678;BME280;59511;52.136;6.206;2023-12-20T02:07:53;101400.75;;;26.26;29.67
71678;BME280;59511;52.136;6.206;2023-12-20T02:10:18;101397.19;;;26.25;29.94
71678;BME280;59511;52.136;6.206;2023-12-20T02:12:44;101392.56;;;26.26;29.88
71678;BME280;59511;52.136;6.206;2023-12-20T02:15:09;101388.75;;;26.27;29.71
71678;BME280;59511;52.136;6.206;2023-12-20T02:17:36;101399.66;;;26.27;29.82
71678;BME280;59511;52.136;6.206;2023-12-20T02:20:01;101403.75;;;26.24;29.70
71678;BME280;59511;52.136;6.206;2023-12-20T02:22:27;101397.75;;;26.27;29.78
71678;BME280;59511;52.136;6.206;2023-12-20T02:24:53;101387.59;;;26.18;29.91
71678;BME280;59511;52.136;6.206;2023-12-20T02:27:19;101383.50;;;26.20;29.84
71678;BME280;59511;52.136;6.206;2023-12-20T02:29:46;101376.69;;;26.18;29.96
71678;BME280;59511;52.136;6.206;2023-12-20T02:32:12;101381.34;;;26.22;29.81
71678;BME280;59511;52.136;6.206;2023-12-20T02:34:38;101370.44;;;26.22;29.69
71678;BME280;59511;52.136;6.206;2023-12-20T02:37:03;101372.06;;;26.23;29.50
71678;BME280;59511;52.136;6.206;2023-12-20T02:39:28;101373.41;;;26.21;29.87
71678;BME280;59511;52.136;6.206;2023-12-20T02:41:54;101366.56;;;26.18;29.66
71678;BME280;59511;52.136;6.206;2023-12-20T02:44:19;101365.75;;;26.18;29.86
71678;BME280;59511;52.136;6.206;2023-12-20T02:46:44;101375.81;;;26.12;29.67
71678;BME280;59511;52.136;6.206;2023-12-20T02:49:10;101365.75;;;26.18;29.48
71678;BME280;59511;52.136;6.206;2023-12-20T02:51:35;101358.91;;;26.15;29.93
71678;BME280;59511;52.136;6.206;2023-12-20T02:54:03;101357.78;;;26.11;29.69
71678;BME280;59511;52.136;6.206;2023-12-20T02:56:29;101352.00;;;26.08;29.79
71678;BME280;59511;52.136;6.206;2023-12-20T02:58:54;101352.28;;;26.06;29.72
71678;BME280;59511;52.136;6.206;2023-12-20T03:01:20;101338.06;;;26.04;29.76
71678;BME280;59511;52.136;6.206;2023-12-20T03:03:45;101344.84;;;26.01;29.80
71678;BME280;59511;52.136;6.206;2023-12-20T03:06:10;101338.63;;;26.06;29.63
71678;BME280;59511;52.136;6.206;2023-12-20T03:08:36;101340.03;;;26.09;29.54
71678;BME280;59511;52.136;6.206;2023-12-20T03:11:02;101336.44;;;26.03;29.75
71678;BME280;59511;52.136;6.206;2023-12-20T03:13:27;101341.66;;;26.10;29.67
71678;BME280;59511;52.136;6.206;2023-12-20T03:15:52;101341.97;;;26.13;29.30
71678;BME280;59511;52.136;6.206;2023-12-20T03:18:18;101339.47;;;26.07;29.67
71678;BME280;59511;52.136;6.206;2023-12-20T03:20:43;101336.19;;;26.10;29.56
71678;BME280;59511;52.136;6.206;2023-12-20T03:23:09;101335.38;;;26.09;29.45
71678;BME280;59511;52.136;6.206;2023-12-20T03:25:34;101335.91;;;26.06;29.56
71678;BME280;59511;52.136;6.206;2023-12-20T03:28:00;101342.75;;;26.09;29.20
71678;BME280;59511;52.136;6.206;2023-12-20T03:30:25;101337.59;;;26.12;29.68
71678;BME280;59511;52.136;6.206;2023-12-20T03:32:51;101333.78;;;26.13;29.58
71678;BME280;59511;52.136;6.206;2023-12-20T03:35:16;101327.19;;;26.09;29.42
71678;BME280;59511;52.136;6.206;2023-12-20T03:37:41;101337.03;;;26.10;29.20
71678;BME280;59511;52.136;6.206;2023-12-20T03:40:07;101323.81;;;26.02;29.47
71678;BME280;59511;52.136;6.206;2023-12-20T03:42:32;101327.19;;;26.09;29.21
71678;BME280;59511;52.136;6.206;2023-12-20T03:44:58;101319.81;;;26.10;29.38
71678;BME280;59511;52.136;6.206;2023-12-20T03:47:23;101321.50;;;26.11;29.48
71678;BME280;59511;52.136;6.206;2023-12-20T03:49:48;101319.00;;;26.09;29.11
71678;BME280;59511;52.136;6.206;2023-12-20T03:52:14;101312.72;;;26.09;29.42
71678;BME280;59511;52.136;6.206;2023-12-20T03:54:40;101328.28;;;26.08;29.47
71678;BME280;59511;52.136;6.206;2023-12-20T03:57:07;101323.38;;;26.10;29.39
71678;BME280;59511;52.136;6.206;2023-12-20T03:59:37;101331.56;;;26.10;29.25
71678;BME280;59511;52.136;6.206;2023-12-20T04:02:03;101329.91;;;26.09;28.92
71678;BME280;59511;52.136;6.206;2023-12-20T04:04:28;101331.28;;;26.07;29.35
71678;BME280;59511;52.136;6.206;2023-12-20T04:06:54;101332.63;;;26.09;29.07
71678;BME280;59511;52.136;6.206;2023-12-20T04:09:19;101333.44;;;26.05;29.40
71678;BME280;59511;52.136;6.206;2023-12-20T04:11:45;101337.47;;;26.02;29.49
71678;BME280;59511;52.136;6.206;2023-12-20T04:14:10;101335.63;;;26.08;29.32
71678;BME280;59511;52.136;6.206;2023-12-20T04:16:36;101335.06;;;26.06;29.00
71678;BME280;59511;52.136;6.206;2023-12-20T04:19:01;101335.06;;;26.06;29.47
71678;BME280;59511;52.136;6.206;2023-12-20T04:21:27;101330.72;;;26.05;29.50
71678;BME280;59511;52.136;6.206;2023-12-20T04:23:53;101333.06;;;25.96;29.22
71678;BME280;59511;52.136;6.206;2023-12-20T04:26:18;101335.84;;;26.01;29.42
71678;BME280;59511;52.136;6.206;2023-12-20T04:28:43;101316.69;;;25.96;29.18
71678;BME280;59511;52.136;6.206;2023-12-20T04:31:09;101339.66;;;26.00;29.32
71678;BME280;59511;52.136;6.206;2023-12-20T04:33:34;101338.56;;;26.01;29.18
71678;BME280;59511;52.136;6.206;2023-12-20T04:35:59;101335.84;;;26.01;29.21
71678;BME280;59511;52.136;6.206;2023-12-20T04:38:25;101334.19;;;26.00;29.29
71678;BME280;59511;52.136;6.206;2023-12-20T04:40:51;101329.81;;;25.99;29.36
71678;BME280;59511;52.136;6.206;2023-12-20T04:43:17;101320.25;;;25.96;29.09
71678;BME280;59511;52.136;6.206;2023-12-20T04:45:42;101331.16;;;25.96;29.24
71678;BME280;59511;52.136;6.206;2023-12-20T04:48:07;101319.47;;;26.01;29.20
71678;BME280;59511;52.136;6.206;2023-12-20T04:50:33;101312.59;;;25.98;29.15
71678;BME280;59511;52.136;6.206;2023-12-20T04:52:58;101313.97;;;25.96;29.11
71678;BME280;59511;52.136;6.206;2023-12-20T04:55:24;101305.78;;;25.96;29.11
71678;BME280;59511;52.136;6.206;2023-12-20T04:57:49;101303.06;;;25.96;29.26
71678;BME280;59511;52.136;6.206;2023-12-20T05:00:14;101309.81;;;25.88;29.05
71678;BME280;59511;52.136;6.206;2023-12-20T05:02:40;101306.00;;;25.89;29.31
71678;BME280;59511;52.136;6.206;2023-12-20T05:05:06;101307.38;;;25.92;29.03
71678;BME280;59511;52.136;6.206;2023-12-20T05:07:31;101310.63;;;25.89;29.06
71678;BME280;59511;52.136;6.206;2023-12-20T05:09:57;101305.19;;;25.89;29.26
71678;BME280;59511;52.136;6.206;2023-12-20T05:12:22;101305.44;;;25.87;29.24
71678;BME280;59511;52.136;6.206;2023-12-20T05:14:47;101301.91;;;25.92;29.11
71678;BME280;59511;52.136;6.206;2023-12-20T05:17:13;101306.84;;;25.95;28.95
71678;BME280;59511;52.136;6.206;2023-12-20T05:19:38;101289.03;;;25.82;29.15
71678;BME280;59511;52.136;6.206;2023-12-20T05:22:03;101292.09;;;25.91;28.94
71678;BME280;59511;52.136;6.206;2023-12-20T05:24:29;101296.47;;;25.92;28.92
71678;BME280;59511;52.136;6.206;2023-12-20T05:26:54;101310.94;;;25.92;29.29
71678;BME280;59511;52.136;6.206;2023-12-20T05:29:20;101311.78;;;25.93;28.99
71678;BME280;59511;52.136;6.206;2023-12-20T05:31:45;101307.66;;;25.90;28.95
71678;BME280;59511;52.136;6.206;2023-12-20T05:34:11;101306.00;;;25.89;29.21
71678;BME280;59511;52.136;6.206;2023-12-20T05:36:37;101306.53;;;25.91;29.19
71678;BME280;59511;52.136;6.206;2023-12-20T05:39:02;101293.69;;;25.87;29.34
71678;BME280;59511;52.136;6.206;2023-12-20T05:41:31;101298.06;;;25.88;29.27
71678;BME280;59511;52.136;6.206;2023-12-20T05:43:56;101294.28;;;25.94;29.13
71678;BME280;59511;52.136;6.206;2023-12-20T05:46:23;101293.16;;;25.90;29.01
71678;BME280;59511;52.136;6.206;2023-12-20T05:48:49;101292.59;;;25.88;29.13
71678;BME280;59511;52.136;6.206;2023-12-20T05:51:14;101294.53;;;25.87;29.00
71678;BME280;59511;52.136;6.206;2023-12-20T05:53:40;101303.78;;;25.86;29.05
71678;BME280;59511;52.136;6.206;2023-12-20T05:56:05;101298.06;;;25.88;29.09
71678;BME280;59511;52.136;6.206;2023-12-20T05:58:32;101301.31;;;25.85;29.06
71678;BME280;59511;52.136;6.206;2023-12-20T06:00:57;101301.59;;;25.83;29.27
71678;BME280;59511;52.136;6.206;2023-12-20T06:03:23;101300.75;;;25.83;29.04
71678;BME280;59511;52.136;6.206;2023-12-20T06:05:48;101297.75;;;25.84;28.82
71678;BME280;59511;52.136;6.206;2023-12-20T06:08:14;101302.38;;;25.79;29.28
71678;BME280;59511;52.136;6.206;2023-12-20T06:10:39;101298.03;;;25.83;29.20
71678;BME280;59511;52.136;6.206;2023-12-20T06:13:05;101298.56;;;25.80;29.15
71678;BME280;59511;52.136;6.206;2023-12-20T06:15:32;101301.28;;;25.80;29.04
71678;BME280;59511;52.136;6.206;2023-12-20T06:17:57;101296.34;;;25.77;29.03
71678;BME280;59511;52.136;6.206;2023-12-20T06:20:22;101297.72;;;25.79;28.71
71678;BME280;59511;52.136;6.206;2023-12-20T06:22:48;101296.84;;;25.74;29.16
71678;BME280;59511;52.136;6.206;2023-12-20T06:25:13;101299.38;;;25.80;29.04
71678;BME280;59511;52.136;6.206;2023-12-20T06:27:39;101294.44;;;25.77;28.77
71678;BME280;59511;52.136;6.206;2023-12-20T06:30:05;101285.16;;;25.73;29.28
71678;BME280;59511;52.136;6.206;2023-12-20T06:32:30;101298.25;;;25.76;29.08
71678;BME280;59511;52.136;6.206;2023-12-20T06:34:56;101290.91;;;25.77;29.17
71678;BME280;59511;52.136;6.206;2023-12-20T06:37:21;101284.34;;;25.78;29.00
71678;BME280;59511;52.136;6.206;2023-12-20T06:39:46;101291.47;;;25.79;28.82
71678;BME280;59511;52.136;6.206;2023-12-20T06:42:12;101295.78;;;25.75;28.95
71678;BME280;59511;52.136;6.206;2023-12-20T06:44:38;101285.63;;;25.70;29.29
71678;BME280;59511;52.136;6.206;2023-12-20T06:47:04;101285.19;;;25.78;29.05
71678;BME280;59511;52.136;6.206;2023-12-20T06:49:29;101287.06;;;25.78;28.90
71678;BME280;59511;52.136;6.206;2023-12-20T06:51:55;101287.34;;;25.76;28.54
71678;BME280;59511;52.136;6.206;2023-12-20T06:54:20;101287.88;;;25.73;29.20
71678;BME280;59511;52.136;6.206;2023-12-20T06:56:46;101283.78;;;25.76;28.82
71678;BME280;59511;52.136;6.206;2023-12-20T06:59:11;101295.00;;;25.79;28.65
71678;BME280;59511;52.136;6.206;2023-12-20T07:01:36;101292.22;;;25.74;29.20
71678;BME280;59511;52.136;6.206;2023-12-20T07:04:03;101284.66;;;25.81;29.13
71678;BME280;59511;52.136;6.206;2023-12-20T07:06:28;101282.16;;;25.75;28.77
71678;BME280;59511;52.136;6.206;2023-12-20T07:08:54;101281.00;;;25.71;28.93
71678;BME280;59511;52.136;6.206;2023-12-20T07:11:19;101282.72;;;25.77;28.80
71678;BME280;59511;52.136;6.206;2023-12-20T07:13:45;101278.63;;;25.79;29.01
71678;BME280;59511;52.136;6.206;2023-12-20T07:16:10;101280.56;;;25.79;28.76
71678;BME280;59511;52.136;6.206;2023-12-20T07:18:36;101259.78;;;25.78;28.67
71678;BME280;59511;52.136;6.206;2023-12-20T07:21:01;101276.16;;;25.78;28.58
71678;BME280;59511;52.136;6.206;2023-12-20T07:23:26;101268.50;;;25.75;29.06
71678;BME280;59511;52.136;6.206;2023-12-20T07:25:52;101275.59;;;25.76;28.57
71678;BME280;59511;52.136;6.206;2023-12-20T07:28:17;101276.13;;;25.73;28.71
71678;BME280;59511;52.136;6.206;2023-12-20T07:30:43;101275.88;;;25.74;28.63
71678;BME280;59511;52.136;6.206;2023-12-20T07:33:08;101283.75;;;25.71;28.56
71678;BME280;59511;52.136;6.206;2023-12-20T07:35:34;101275.28;;;25.72;28.96
71678;BME280;59511;52.136;6.206;2023-12-20T07:38:00;101273.66;;;25.71;28.89
71678;BME280;59511;52.136;6.206;2023-12-20T07:40:25;101276.69;;;25.75;28.83
71678;BME280;59511;52.136;6.206;2023-12-20T07:42:51;101274.22;;;25.73;28.66
71678;BME280;59511;52.136;6.206;2023-12-20T07:45:16;101268.25;;;25.76;28.76
71678;BME280;59511;52.136;6.206;2023-12-20T07:47:41;101272.09;;;25.80;28.47
71678;BME280;59511;52.136;6.206;2023-12-20T07:50:07;101275.91;;;25.79;28.43
71678;BME280;59511;52.136;6.206;2023-12-20T07:52:32;101264.72;;;25.81;28.85
71678;BME280;59511;52.136;6.206;2023-12-20T07:54:57;101265.59;;;25.86;28.57
71678;BME280;59511;52.136;6.206;2023-12-20T07:57:23;101264.25;;;25.89;28.25
71678;BME280;59511;52.136;6.206;2023-12-20T07:59:49;101271.59;;;25.88;28.27
71678;BME280;59511;52.136;6.206;2023-12-20T08:02:14;101274.63;;;25.92;28.33
71678;BME280;59511;52.136;6.206;2023-12-20T08:04:40;101281.78;;;25.98;28.43
71678;BME280;59511;52.136;6.206;2023-12-20T08:07:06;101277.97;;;25.99;28.00
71678;BME280;59511;52.136;6.206;2023-12-20T08:09:32;101274.97;;;26.00;28.27
71678;BME280;59511;52.136;6.206;2023-12-20T08:11:58;101277.69;;;26.00;28.39
71678;BME280;59511;52.136;6.206;2023-12-20T08:14:25;101282.84;;;25.97;28.40
71678;BME280;59511;52.136;6.206;2023-12-20T08:16:50;101280.94;;;25.97;28.38
71678;BME280;59511;52.136;6.206;2023-12-20T08:19:16;101280.69;;;25.99;28.44
71678;BME280;59511;52.136;6.206;2023-12-20T08:21:42;101288.59;;;26.00;28.05
71678;BME280;59511;52.136;6.206;2023-12-20T08:24:08;101280.75;;;26.04;28.17
71678;BME280;59511;52.136;6.206;2023-12-20T08:26:33;101274.97;;;26.00;28.31
71678;BME280;59511;52.136;6.206;2023-12-20T08:28:58;101281.31;;;26.06;28.34
71678;BME280;59511;52.136;6.206;2023-12-20T08:31:24;101277.53;;;26.07;28.10
71678;BME280;59511;52.136;6.206;2023-12-20T08:33:50;101265.78;;;26.07;28.05
71678;BME280;59511;52.136;6.206;2023-12-20T08:36:15;101273.13;;;26.06;28.02
71678;BME280;59511;52.136;6.206;2023-12-20T08:38:43;101272.84;;;26.08;27.94
71678;BME280;59511;52.136;6.206;2023-12-20T08:41:08;101268.75;;;26.05;28.06
71678;BME280;59511;52.136;6.206;2023-12-20T08:43:34;101267.09;;;26.04;27.95
71678;BME280;59511;52.136;6.206;2023-12-20T08:46:01;101269.50;;;26.00;28.29
71678;BME280;59511;52.136;6.206;2023-12-20T08:48:26;101266.22;;;25.98;28.09
71678;BME280;59511;52.136;6.206;2023-12-20T08:50:52;101264.59;;;26.02;28.05
71678;BME280;59511;52.136;6.206;2023-12-20T08:53:18;101270.06;;;26.02;28.20
71678;BME280;59511;52.136;6.206;2023-12-20T08:55:44;101265.72;;;26.01;28.34
71678;BME280;59511;52.136;6.206;2023-12-20T08:58:09;101258.31;;;26.02;28.14
71678;BME280;59511;52.136;6.206;2023-12-20T09:00:35;101261.59;;;25.99;28.30
71678;BME280;59511;52.136;6.206;2023-12-20T09:03:01;101260.53;;;26.00;28.31
71678;BME280;59511;52.136;6.206;2023-12-20T09:05:27;101259.75;;;26.05;28.24
71678;BME280;59511;52.136;6.206;2023-12-20T09:07:53;101256.75;;;26.06;28.18
71678;BME280;59511;52.136;6.206;2023-12-20T09:10:18;101256.41;;;25.97;28.45
71678;BME280;59511;52.136;6.206;2023-12-20T09:12:50;101267.31;;;25.97;28.47
71678;BME280;59511;52.136;6.206;2023-12-20T09:15:16;101264.09;;;26.06;28.19
71678;BME280;59511;52.136;6.206;2023-12-20T09:17:42;101270.41;;;26.06;28.64
71678;BME280;59511;52.136;6.206;2023-12-20T09:20:09;101259.22;;;26.08;28.94
71678;BME280;59511;52.136;6.206;2023-12-20T09:22:35;101270.44;;;26.11;29.08
71678;BME280;59511;52.136;6.206;2023-12-20T09:25:00;101257.88;;;26.10;29.40
71678;BME280;59511;52.136;6.206;2023-12-20T09:27:27;101260.34;;;26.12;29.40
71678;BME280;59511;52.136;6.206;2023-12-20T09:29:52;101260.91;;;26.14;29.55
71678;BME280;59511;52.136;6.206;2023-12-20T09:32:18;101264.19;;;26.16;29.52
71678;BME280;59511;52.136;6.206;2023-12-20T09:34:45;101271.56;;;26.15;29.44
71678;BME280;59511;52.136;6.206;2023-12-20T09:37:11;101263.91;;;26.12;29.49
71678;BME280;59511;52.136;6.206;2023-12-20T09:39:36;101270.44;;;26.11;29.43
71678;BME280;59511;52.136;6.206;2023-12-20T09:42:03;101268.78;;;26.10;29.17
71678;BME280;59511;52.136;6.206;2023-12-20T09:44:30;101265.78;;;26.07;29.62
71678;BME280;59511;52.136;6.206;2023-12-20T09:46:56;101281.06;;;26.13;29.39
71678;BME280;59511;52.136;6.206;2023-12-20T09:49:22;101275.31;;;26.09;29.67
71678;BME280;59511;52.136;6.206;2023-12-20T09:51:50;101276.97;;;26.10;29.38
71678;BME280;59511;52.136;6.206;2023-12-20T09:54:19;101269.88;;;26.09;29.70
71678;BME280;59511;52.136;6.206;2023-12-20T09:56:45;101272.34;;;26.11;29.45
71678;BME280;59511;52.136;6.206;2023-12-20T09:59:11;101278.06;;;26.09;29.61
71678;BME280;59511;52.136;6.206;2023-12-20T10:01:38;101288.19;;;26.14;29.56
71678;BME280;59511;52.136;6.206;2023-12-20T10:04:05;101284.59;;;26.08;29.66
71678;BME280;59511;52.136;6.206;2023-12-20T10:06:43;101286.50;;;26.08;29.47
71678;BME280;59511;52.136;6.206;2023-12-20T10:09:10;101291.19;;;26.12;29.47
71678;BME280;59511;52.136;6.206;2023-12-20T10:11:37;101301.56;;;26.10;29.55
71678;BME280;59511;52.136;6.206;2023-12-20T10:14:03;101284.03;;;26.06;29.65
71678;BME280;59511;52.136;6.206;2023-12-20T10:16:29;101286.78;;;26.06;29.49
71678;BME280;59511;52.136;6.206;2023-12-20T10:18:55;101279.97;;;26.09;29.32
71678;BME280;59511;52.136;6.206;2023-12-20T10:21:22;101269.66;;;26.16;29.52
71678;BME280;59511;52.136;6.206;2023-12-20T10:23:48;101279.78;;;26.25;29.32
71678;BME280;59511;52.136;6.206;2023-12-20T10:26:21;101285.81;;;26.27;29.19
71678;BME280;59511;52.136;6.206;2023-12-20T10:28:52;101283.13;;;26.37;29.34
71678;BME280;59511;52.136;6.206;2023-12-20T10:31:32;101289.19;;;26.44;29.48
71678;BME280;59511;52.136;6.206;2023-12-20T10:33:59;101275.03;;;26.52;29.46
71678;BME280;59511;52.136;6.206;2023-12-20T10:36:26;101268.75;;;26.52;29.45
71678;BME280;59511;52.136;6.206;2023-12-20T10:38:53;101258.66;;;26.52;29.12
71678;BME280;59511;52.136;6.206;2023-12-20T10:41:25;101276.41;;;26.55;29.84
71678;BME280;59511;52.136;6.206;2023-12-20T10:44:01;101263.28;;;26.47;29.84
71678;BME280;59511;52.136;6.206;2023-12-20T10:46:31;101264.69;;;26.59;29.57
71678;BME280;59511;52.136;6.206;2023-12-20T10:48:57;101263.31;;;26.62;29.46
71678;BME280;59511;52.136;6.206;2023-12-20T10:51:24;101262.53;;;26.61;30.04
71678;BME280;59511;52.136;6.206;2023-12-20T10:53:52;101249.66;;;26.62;30.05
71678;BME280;59511;52.136;6.206;2023-12-20T10:56:18;101254.06;;;26.63;29.88
71678;BME280;59511;52.136;6.206;2023-12-20T10:58:48;101241.47;;;26.62;30.40
71678;BME280;59511;52.136;6.206;2023-12-20T11:01:14;101249.75;;;26.72;30.11
71678;BME280;59511;52.136;6.206;2023-12-20T11:03:52;101250.53;;;26.67;30.43
71678;BME280;59511;52.136;6.206;2023-12-20T11:07:28;101243.22;;;26.83;30.50
71678;BME280;59511;52.136;6.206;2023-12-20T11:09:54;101242.97;;;26.84;30.42
71678;BME280;59511;52.136;6.206;2023-12-20T11:12:41;101238.31;;;26.85;31.02
71678;BME280;59511;52.136;6.206;2023-12-20T11:15:10;101234.78;;;26.84;30.80
71678;BME280;59511;52.136;6.206;2023-12-20T11:17:39;101233.13;;;26.93;30.25
71678;BME280;59511;52.136;6.206;2023-12-20T11:20:08;101231.50;;;26.97;30.22
71678;BME280;59511;52.136;6.206;2023-12-20T11:22:35;101229.63;;;27.03;30.30
71678;BME280;59511;52.136;6.206;2023-12-20T11:25:04;101228.19;;;26.85;30.55
71678;BME280;59511;52.136;6.206;2023-12-20T11:27:30;101213.44;;;26.86;30.51
71678;BME280;59511;52.136;6.206;2023-12-20T11:29:57;101213.16;;;26.83;30.42
71678;BME280;59511;52.136;6.206;2023-12-20T11:34:56;101203.63;;;26.95;30.49
71678;BME280;59511;52.136;6.206;2023-12-20T11:37:21;101201.19;;;27.04;30.32
71678;BME280;59511;52.136;6.206;2023-12-20T11:39:59;101203.66;;;27.05;30.43
71678;BME280;59511;52.136;6.206;2023-12-20T11:42:25;101196.25;;;27.06;30.55
71678;BME280;59511;52.136;6.206;2023-12-20T11:44:50;101195.47;;;27.11;30.72
71678;BME280;59511;52.136;6.206;2023-12-20T11:47:16;101189.72;;;27.17;30.09
71678;BME280;59511;52.136;6.206;2023-12-20T11:49:44;101192.72;;;27.05;30.07
71678;BME280;59511;52.136;6.206;2023-12-20T11:52:12;101193.53;;;26.96;30.17
71678;BME280;59511;52.136;6.206;2023-12-20T11:54:37;101197.59;;;26.93;29.81
71678;BME280;59511;52.136;6.206;2023-12-20T11:57:02;101193.78;;;26.89;30.06
71678;BME280;59511;52.136;6.206;2023-12-20T11:59:28;101193.78;;;26.89;30.11
71678;BME280;59511;52.136;6.206;2023-12-20T12:01:53;101189.94;;;26.90;30.03
71678;BME280;59511;52.136;6.206;2023-12-20T12:04:21;101192.13;;;26.88;29.76
71678;BME280;59511;52.136;6.206;2023-12-20T12:06:46;101186.38;;;26.90;29.80
71678;BME280;59511;52.136;6.206;2023-12-20T12:09:12;101205.78;;;26.88;29.66
71678;BME280;59511;52.136;6.206;2023-12-20T12:11:37;101190.78;;;26.91;29.72
71678;BME280;59511;52.136;6.206;2023-12-20T12:14:03;101184.50;;;26.95;29.57
71678;BME280;59511;52.136;6.206;2023-12-20T12:16:29;101190.50;;;26.92;29.63
71678;BME280;59511;52.136;6.206;2023-12-20T12:18:58;101183.94;;;26.93;29.79
71678;BME280;59511;52.136;6.206;2023-12-20T12:21:24;101176.84;;;26.92;29.60
71678;BME280;59511;52.136;6.206;2023-12-20T12:23:49;101171.38;;;26.87;29.70
71678;BME280;59511;52.136;6.206;2023-12-20T12:26:15;101185.03;;;26.87;29.21
71678;BME280;59511;52.136;6.206;2023-12-20T12:28:41;101188.31;;;26.89;29.37
71678;BME280;59511;52.136;6.206;2023-12-20T12:31:07;101174.38;;;26.91;29.41
71678;BME280;59511;52.136;6.206;2023-12-20T12:33:32;101170.00;;;26.90;29.31
71678;BME280;59511;52.136;6.206;2023-12-20T12:35:58;101162.06;;;26.83;29.41
71678;BME280;59511;52.136;6.206;2023-12-20T12:38:24;101161.00;;;26.84;29.38
71678;BME280;59511;52.136;6.206;2023-12-20T12:40:50;101158.50;;;26.83;29.39
71678;BME280;59511;52.136;6.206;2023-12-20T12:43:18;101144.31;;;26.86;29.13
71678;BME280;59511;52.136;6.206;2023-12-20T12:45:43;101141.03;;;26.84;29.14
71678;BME280;59511;52.136;6.206;2023-12-20T12:48:09;101153.31;;;26.86;29.19